createdAt,value
2018-06-03T00:02:18.752Z,4.80
2018-06-03T00:04:47.590Z,3.37
2018-06-03T00:07:17.176Z,5.45
2018-06-03T00:09:46.068Z,3.65
2018-06-03T00:12:14.873Z,8.95
2018-06-03T00:14:43.717Z,3.83
2018-06-03T00:17:12.564Z,4.85
2018-06-03T00:19:41.418Z,5.22
2018-06-03T00:22:16.791Z,4.40
2018-06-03T00:24:45.635Z,5.65
2018-06-03T00:27:14.473Z,6.22
2018-06-03T00:29:43.904Z,4.35
2018-06-03T00:32:12.747Z,5.30
2018-06-03T00:34:41.573Z,5.65
2018-06-03T00:37:10.415Z,4.00
2018-06-03T00:39:39.263Z,4.37
2018-06-03T00:42:08.297Z,4.77
2018-06-03T00:44:37.148Z,4.80
2018-06-03T00:47:05.990Z,4.05
2018-06-03T00:49:35.594Z,4.05
2018-06-03T00:52:04.433Z,5.70
2018-06-03T00:54:33.279Z,4.87
2018-06-03T00:57:09.883Z,6.80
2018-06-03T00:59:38.723Z,6.45
2018-06-03T01:02:07.563Z,3.50
2018-06-03T01:04:36.403Z,3.40
2018-06-03T01:07:05.238Z,4.20
2018-06-03T01:09:34.077Z,6.37
2018-06-03T01:12:02.917Z,6.30
2018-06-03T01:14:31.752Z,4.53
2018-06-03T01:17:00.590Z,4.13
2018-06-03T01:19:29.449Z,3.67
2018-06-03T01:21:58.280Z,3.57
2018-06-03T01:24:27.122Z,4.27
2018-06-03T01:26:55.978Z,3.90
2018-06-03T01:29:24.826Z,5.57
2018-06-03T01:31:53.690Z,4.20
2018-06-03T01:34:22.546Z,4.57
2018-06-03T01:36:51.375Z,3.80
2018-06-03T01:39:20.955Z,3.73
2018-06-03T01:41:49.805Z,5.50
2018-06-03T01:44:18.638Z,4.23
2018-06-03T01:46:47.505Z,3.60
2018-06-03T01:49:16.349Z,5.75
2018-06-03T01:51:45.267Z,4.00
2018-06-03T01:54:14.019Z,4.10
2018-06-03T01:56:43.607Z,5.33
2018-06-03T01:59:13.044Z,4.72
2018-06-03T02:01:41.884Z,4.60
2018-06-03T02:04:10.723Z,3.70
2018-06-03T02:06:39.551Z,4.07
2018-06-03T02:09:08.400Z,4.77
2018-06-03T02:11:37.238Z,4.80
2018-06-03T02:14:06.071Z,5.57
2018-06-03T02:16:34.917Z,5.63
2018-06-03T02:19:03.759Z,7.67
2018-06-03T02:21:32.590Z,6.67
2018-06-03T02:24:01.435Z,4.10
2018-06-03T02:26:30.269Z,6.90
2018-06-03T02:28:59.108Z,6.77
2018-06-03T02:31:27.938Z,5.53
2018-06-03T02:33:56.784Z,5.43
2018-06-03T02:36:25.619Z,5.43
2018-06-03T02:38:54.457Z,5.47
2018-06-03T02:41:24.042Z,8.20
2018-06-03T02:43:52.887Z,5.20
2018-06-03T02:46:21.726Z,5.00
2018-06-03T02:48:50.567Z,6.70
2018-06-03T02:51:19.409Z,5.30
2018-06-03T02:53:48.257Z,5.53
2018-06-03T02:56:17.098Z,6.45
2018-06-03T02:58:46.681Z,6.00
2018-06-03T03:01:15.532Z,6.03
2018-06-03T03:03:44.371Z,6.62
2018-06-03T03:06:13.212Z,6.47
2018-06-03T03:08:42.047Z,5.50
2018-06-03T03:11:11.633Z,5.87
2018-06-03T03:13:40.492Z,6.10
2018-06-03T03:16:09.327Z,5.80
2018-06-03T03:18:38.183Z,6.37
2018-06-03T03:21:07.029Z,7.47
2018-06-03T03:23:35.864Z,6.40
2018-06-03T03:26:04.706Z,5.63
2018-06-03T03:28:33.557Z,5.93
2018-06-03T03:31:02.416Z,5.20
2018-06-03T03:33:31.255Z,6.87
2018-06-03T03:36:00.091Z,6.20
2018-06-03T03:38:28.938Z,6.37
2018-06-03T03:40:58.532Z,5.50
2018-06-03T03:43:27.377Z,6.57
2018-06-03T03:45:56.219Z,7.10
2018-06-03T03:48:25.804Z,5.53
2018-06-03T03:50:54.646Z,8.13
2018-06-03T03:53:23.483Z,6.53
2018-06-03T03:55:52.369Z,8.67
2018-06-03T03:58:21.201Z,5.30
2018-06-03T04:00:50.047Z,5.50
2018-06-03T04:03:18.883Z,6.00
2018-06-03T04:05:47.730Z,6.87
2018-06-03T04:08:17.316Z,7.23
2018-06-03T04:10:46.154Z,7.00
2018-06-03T04:13:15.750Z,5.70
2018-06-03T04:15:45.320Z,6.07
2018-06-03T04:18:14.156Z,9.02
2018-06-03T04:20:43.745Z,7.73
2018-06-03T04:23:12.591Z,8.37
2018-06-03T04:25:41.447Z,5.77
2018-06-03T04:28:10.281Z,7.07
2018-06-03T04:30:39.122Z,6.43
2018-06-03T04:33:08.697Z,9.03
2018-06-03T04:35:37.540Z,7.33
2018-06-03T04:38:06.415Z,6.67
2018-06-03T04:40:35.227Z,6.40
2018-06-03T04:43:04.568Z,6.20
2018-06-03T04:45:33.474Z,6.80
2018-06-03T04:48:03.060Z,6.43
2018-06-03T04:50:31.899Z,8.80
2018-06-03T04:53:00.746Z,8.50
2018-06-03T04:55:29.574Z,8.33
2018-06-03T04:57:58.428Z,6.60
2018-06-03T05:00:27.264Z,7.90
2018-06-03T05:02:56.117Z,7.03
2018-06-03T05:05:24.964Z,7.53
2018-06-03T05:07:53.807Z,9.65
2018-06-03T05:10:22.651Z,7.90
2018-06-03T05:12:51.483Z,8.93
2018-06-03T05:15:21.077Z,11.77
2018-06-03T05:17:49.911Z,11.50
2018-06-03T05:20:18.798Z,10.47
2018-06-03T05:22:47.624Z,11.50
2018-06-03T05:25:17.212Z,11.50
2018-06-03T05:27:46.068Z,12.10
2018-06-03T05:30:14.908Z,14.57
2018-06-03T05:32:43.769Z,13.85
2018-06-03T05:35:12.617Z,11.30
2018-06-03T05:37:41.456Z,12.07
2018-06-03T05:40:10.300Z,9.23
2018-06-03T05:42:39.145Z,10.13
2018-06-03T05:45:07.979Z,9.67
2018-06-03T05:47:36.830Z,10.53
2018-06-03T05:50:05.682Z,11.70
2018-06-03T05:52:34.514Z,9.60
2018-06-03T05:55:03.464Z,8.90
2018-06-03T05:57:32.203Z,9.85
2018-06-03T06:00:01.059Z,7.77
2018-06-03T06:02:29.913Z,10.27
2018-06-03T06:04:58.760Z,7.23
2018-06-03T06:07:27.590Z,7.90
2018-06-03T06:09:56.498Z,7.23
2018-06-03T06:12:25.279Z,6.43
2018-06-03T06:14:54.151Z,7.47
2018-06-03T06:17:22.998Z,6.13
2018-06-03T06:19:51.834Z,7.97
2018-06-03T06:22:20.685Z,8.73
2018-06-03T06:24:49.519Z,6.57
2018-06-03T06:27:18.363Z,7.10
2018-06-03T06:29:47.206Z,7.10
2018-06-03T06:32:16.041Z,6.80
2018-06-03T06:34:44.913Z,8.27
2018-06-03T06:37:13.711Z,6.40
2018-06-03T06:39:43.300Z,6.00
2018-06-03T06:42:12.151Z,4.73
2018-06-03T06:44:40.999Z,4.97
2018-06-03T06:47:09.852Z,5.20
2018-06-03T06:49:38.692Z,6.40
2018-06-03T06:52:08.346Z,11.03
2018-06-03T06:54:37.110Z,7.18
2018-06-03T06:57:05.957Z,6.13
2018-06-03T06:59:34.802Z,4.80
2018-06-03T07:02:03.653Z,5.55
2018-06-03T07:04:32.495Z,5.53
2018-06-03T07:07:01.335Z,5.85
2018-06-03T07:09:30.183Z,5.57
2018-06-03T07:11:59.026Z,7.90
2018-06-03T07:14:28.630Z,7.80
2018-06-03T07:16:57.449Z,7.00
2018-06-03T07:19:26.303Z,6.87
2018-06-03T07:21:55.140Z,9.70
2018-06-03T07:24:23.980Z,6.28
2018-06-03T07:26:53.551Z,5.60
2018-06-03T07:29:22.400Z,5.43
2018-06-03T07:31:51.234Z,5.93
2018-06-03T07:34:20.073Z,8.95
2018-06-03T07:36:48.940Z,7.32
2018-06-03T07:39:17.800Z,6.22
2018-06-03T07:41:46.656Z,6.95
2018-06-03T07:44:15.487Z,8.32
2018-06-03T07:46:44.336Z,5.95
2018-06-03T07:49:13.172Z,8.45
2018-06-03T07:51:42.026Z,7.62
2018-06-03T07:54:10.877Z,7.80
2018-06-03T07:56:39.722Z,7.00
2018-06-03T07:59:08.566Z,6.45
2018-06-03T08:01:38.141Z,8.02
2018-06-03T08:04:07.009Z,6.68
2018-06-03T08:06:35.863Z,7.85
2018-06-03T08:09:04.720Z,6.00
2018-06-03T08:11:33.558Z,6.03
2018-06-03T08:14:02.400Z,7.47
2018-06-03T08:16:31.987Z,6.85
2018-06-03T08:19:00.848Z,7.35
2018-06-03T08:21:29.680Z,5.37
2018-06-03T08:23:58.537Z,7.45
2018-06-03T08:26:27.385Z,7.87
2018-06-03T08:28:56.248Z,6.03
2018-06-03T08:31:25.327Z,6.70
2018-06-03T08:33:54.130Z,5.70
2018-06-03T08:36:22.988Z,7.50
2018-06-03T08:38:51.812Z,4.87
2018-06-03T08:41:20.692Z,6.12
2018-06-03T08:43:49.516Z,6.25
2018-06-03T08:46:19.105Z,7.18
2018-06-03T08:48:47.955Z,6.82
2018-06-03T08:51:16.803Z,8.45
2018-06-03T08:53:45.626Z,6.18
2018-06-03T08:56:14.464Z,5.10
2018-06-03T08:58:43.311Z,4.80
2018-06-03T09:01:12.156Z,5.70
2018-06-03T09:03:41.770Z,5.47
2018-06-03T09:06:10.611Z,6.68
2018-06-03T09:08:39.464Z,5.10
2018-06-03T09:11:08.517Z,7.60
2018-06-03T09:13:37.365Z,5.28
2018-06-03T09:16:06.321Z,5.32
2018-06-03T09:18:35.792Z,4.00
2018-06-03T09:21:04.643Z,8.05
2018-06-03T09:23:33.799Z,5.43
2018-06-03T09:26:03.384Z,5.87
2018-06-03T09:28:32.242Z,6.72
2018-06-03T09:31:06.910Z,5.95
2018-06-03T09:33:35.751Z,5.68
2018-06-03T09:36:04.597Z,7.70
2018-06-03T09:38:34.170Z,20.30
2018-06-03T09:41:03.009Z,5.70
2018-06-03T09:43:31.865Z,5.20
2018-06-03T09:46:00.721Z,5.53
2018-06-03T09:48:29.551Z,5.55
2018-06-03T09:50:59.143Z,6.87
2018-06-03T09:53:27.994Z,5.50
2018-06-03T09:55:57.171Z,6.45
2018-06-03T09:58:26.733Z,5.28
2018-06-03T10:00:55.590Z,5.30
2018-06-03T10:03:24.439Z,4.43
2018-06-03T10:05:54.021Z,5.45
2018-06-03T10:08:22.859Z,4.57
2018-06-03T10:10:51.824Z,4.22
2018-06-03T10:13:21.293Z,4.40
2018-06-03T10:15:50.149Z,4.22
2018-06-03T10:18:18.990Z,6.05
2018-06-03T10:20:47.829Z,3.87
2018-06-03T10:23:16.684Z,5.80
2018-06-03T10:25:46.255Z,3.70
2018-06-03T10:28:15.137Z,4.68
2018-06-03T10:30:43.939Z,4.72
2018-06-03T10:33:12.784Z,4.53
2018-06-03T10:35:41.634Z,5.72
2018-06-03T10:38:10.492Z,3.85
2018-06-03T10:40:39.343Z,5.68
2018-06-03T10:43:08.176Z,4.05
2018-06-03T10:45:37.032Z,4.57
2018-06-03T10:48:05.877Z,3.97
2018-06-03T10:50:34.728Z,5.05
2018-06-03T10:53:03.573Z,4.15
2018-06-03T10:55:32.412Z,5.65
2018-06-03T10:58:01.257Z,4.62
2018-06-03T11:00:30.098Z,3.62
2018-06-03T11:02:58.934Z,3.08
2018-06-03T11:05:28.537Z,3.37
2018-06-03T11:07:58.103Z,4.30
2018-06-03T11:10:26.934Z,4.57
2018-06-03T11:12:55.774Z,3.37
2018-06-03T11:15:24.598Z,4.47
2018-06-03T11:17:53.443Z,4.20
2018-06-03T11:20:22.290Z,3.47
2018-06-03T11:22:51.192Z,3.12
2018-06-03T11:25:20.037Z,3.05
2018-06-03T11:27:48.888Z,4.07
2018-06-03T11:30:17.721Z,4.47
2018-06-03T11:32:47.306Z,3.85
2018-06-03T11:35:16.150Z,3.67
2018-06-03T11:37:45.008Z,3.05
2018-06-03T11:40:14.002Z,4.68
2018-06-03T11:42:42.855Z,5.05
2018-06-03T11:45:11.708Z,3.12
2018-06-03T11:47:41.320Z,3.72
2018-06-03T11:50:10.129Z,3.80
2018-06-03T11:52:38.956Z,4.50
2018-06-03T11:55:07.792Z,5.10
2018-06-03T11:57:47.495Z,3.37
2018-06-03T12:00:16.333Z,3.90
2018-06-03T12:02:45.180Z,3.50
2018-06-03T12:05:14.763Z,3.30
2018-06-03T12:07:43.603Z,3.83
2018-06-03T12:10:12.446Z,3.72
2018-06-03T12:12:41.284Z,3.08
2018-06-03T12:15:10.129Z,3.42
2018-06-03T12:17:38.996Z,3.75
2018-06-03T12:20:07.839Z,2.97
2018-06-03T12:22:37.422Z,3.28
2018-06-03T12:25:06.271Z,3.22
2018-06-03T12:27:35.111Z,3.50
2018-06-03T12:30:04.704Z,4.57
2018-06-03T12:32:33.543Z,4.47
2018-06-03T12:35:02.386Z,3.58
2018-06-03T12:37:31.228Z,5.05
2018-06-03T12:40:00.057Z,2.87
2018-06-03T12:42:28.899Z,3.92
2018-06-03T12:44:57.750Z,3.95
2018-06-03T12:47:27.324Z,3.40
2018-06-03T12:49:56.162Z,3.28
2018-06-03T12:52:25.736Z,3.12
2018-06-03T12:54:54.579Z,3.22
2018-06-03T12:57:23.419Z,3.20
2018-06-03T12:59:52.265Z,3.53
2018-06-03T13:02:21.099Z,4.97
2018-06-03T13:04:49.951Z,3.20
2018-06-03T13:07:18.798Z,2.80
2018-06-03T13:09:48.478Z,3.80
2018-06-03T13:12:17.325Z,5.93
2018-06-03T13:14:46.174Z,2.87
2018-06-03T13:17:15.011Z,3.80
2018-06-03T13:19:44.598Z,3.00
2018-06-03T13:22:13.447Z,3.22
2018-06-03T13:24:42.277Z,4.75
2018-06-03T13:27:11.135Z,6.10
2018-06-03T13:29:40.714Z,3.03
2018-06-03T13:32:09.570Z,3.17
2018-06-03T13:34:38.413Z,3.15
2018-06-03T13:37:07.263Z,2.80
2018-06-03T13:39:36.110Z,5.25
2018-06-03T13:42:04.941Z,4.70
2018-06-03T13:44:33.781Z,2.50
2018-06-03T13:47:02.657Z,2.83
2018-06-03T13:49:31.488Z,3.70
2018-06-03T13:52:00.344Z,4.43
2018-06-03T13:54:29.192Z,3.05
2018-06-03T13:56:58.032Z,3.22
2018-06-03T13:59:27.611Z,2.62
2018-06-03T14:01:57.060Z,2.55
2018-06-03T14:04:25.876Z,1.90
2018-06-03T14:06:54.725Z,3.30
2018-06-03T14:09:24.299Z,3.90
2018-06-03T14:11:53.886Z,3.15
2018-06-03T14:14:22.719Z,3.75
2018-06-03T14:16:51.566Z,3.12
2018-06-03T14:19:20.443Z,3.45
2018-06-03T14:21:49.996Z,3.35
2018-06-03T14:24:18.831Z,5.37
2018-06-03T14:26:47.686Z,4.57
2018-06-03T14:29:16.540Z,3.90
2018-06-03T14:31:45.420Z,3.80
2018-06-03T14:34:14.225Z,3.30
2018-06-03T14:36:43.062Z,3.58
2018-06-03T14:39:11.916Z,3.75
2018-06-03T14:41:41.496Z,4.62
2018-06-03T14:44:10.351Z,2.85
2018-06-03T14:46:39.188Z,4.28
2018-06-03T14:49:08.784Z,2.78
2018-06-03T14:51:37.620Z,5.55
2018-06-03T14:54:06.460Z,4.18
2018-06-03T14:56:35.301Z,6.07
2018-06-03T14:59:04.108Z,3.37
2018-06-03T15:01:32.947Z,3.85
2018-06-03T15:04:01.805Z,3.03
2018-06-03T15:06:31.402Z,3.25
2018-06-03T15:09:00.242Z,2.62
2018-06-03T15:11:29.088Z,3.83
2018-06-03T15:13:57.935Z,3.47
2018-06-03T15:16:26.776Z,2.78
2018-06-03T15:18:55.622Z,3.20
2018-06-03T15:21:24.485Z,4.87
2018-06-03T15:23:53.340Z,3.40
2018-06-03T15:26:22.228Z,3.58
2018-06-03T15:28:51.051Z,3.80
2018-06-03T15:31:20.654Z,3.17
2018-06-03T15:33:49.536Z,2.22
2018-06-03T15:36:18.349Z,2.97
2018-06-03T15:38:47.942Z,4.53
2018-06-03T15:41:17.527Z,2.58
2018-06-03T15:43:46.382Z,5.05
2018-06-03T15:46:15.222Z,3.60
2018-06-03T15:48:44.057Z,3.15
2018-06-03T15:51:12.905Z,3.97
2018-06-03T15:53:41.754Z,3.33
2018-06-03T15:56:10.607Z,5.40
2018-06-03T15:58:39.461Z,2.30
2018-06-03T16:01:08.298Z,2.50
2018-06-03T16:03:37.131Z,4.32
2018-06-03T16:06:05.980Z,4.97
2018-06-03T16:08:34.811Z,3.90
2018-06-03T16:11:03.685Z,3.62
2018-06-03T16:13:33.341Z,2.33
2018-06-03T16:16:02.155Z,3.05
2018-06-03T16:18:30.986Z,3.45
2018-06-03T16:20:59.867Z,4.78
2018-06-03T16:23:28.701Z,3.42
2018-06-03T16:25:57.593Z,4.65
2018-06-03T16:28:26.385Z,4.83
2018-06-03T16:30:55.214Z,2.95
2018-06-03T16:33:24.062Z,2.67
2018-06-03T16:35:52.889Z,2.90
2018-06-03T16:38:21.920Z,2.55
2018-06-03T16:40:50.759Z,2.95
2018-06-03T16:43:19.608Z,4.75
2018-06-03T16:45:49.798Z,2.50
2018-06-03T16:48:18.319Z,3.90
2018-06-03T16:50:47.887Z,4.25
2018-06-03T16:53:16.738Z,3.70
2018-06-03T16:55:45.580Z,3.67
2018-06-03T16:58:14.418Z,2.30
2018-06-03T17:00:43.270Z,2.83
2018-06-03T17:03:12.850Z,4.85
2018-06-03T17:05:41.739Z,2.70
2018-06-03T17:08:10.553Z,2.80
2018-06-03T17:13:19.728Z,4.35
2018-06-03T17:15:48.563Z,4.03
2018-06-03T17:18:17.406Z,4.47
2018-06-03T17:20:46.251Z,4.30
2018-06-03T17:23:15.102Z,4.15
2018-06-03T17:25:43.959Z,4.43
2018-06-03T17:28:12.803Z,2.85
2018-06-03T17:30:41.650Z,3.08
2018-06-03T17:33:10.495Z,2.85
2018-06-03T17:35:39.339Z,4.62
2018-06-03T17:38:08.187Z,3.80
2018-06-03T17:40:37.035Z,2.90
2018-06-03T17:43:05.870Z,4.93
2018-06-03T17:45:35.546Z,2.95
2018-06-03T17:48:04.291Z,3.35
2018-06-03T17:50:33.148Z,3.40
2018-06-03T17:53:01.978Z,3.85
2018-06-03T17:55:30.815Z,4.40
2018-06-03T17:57:59.664Z,5.53
2018-06-03T18:00:28.509Z,2.72
2018-06-03T18:02:58.095Z,3.83
2018-06-03T18:05:26.938Z,6.05
2018-06-03T18:07:55.774Z,3.90
2018-06-03T18:10:24.610Z,8.75
2018-06-03T18:12:53.468Z,2.75
2018-06-03T18:15:22.316Z,4.97
2018-06-03T18:17:51.151Z,5.25
2018-06-03T18:20:20.011Z,2.65
2018-06-03T18:22:49.462Z,5.37
2018-06-03T18:25:18.330Z,4.93
2018-06-03T18:27:47.916Z,6.53
2018-06-03T18:30:16.751Z,2.58
2018-06-03T18:32:45.629Z,4.20
2018-06-03T18:35:14.448Z,3.97
2018-06-03T18:37:43.312Z,4.55
2018-06-03T18:40:12.187Z,4.97
2018-06-03T18:42:41.022Z,2.65
2018-06-03T18:45:09.873Z,3.17
2018-06-03T18:47:39.495Z,6.40
2018-06-03T18:50:08.334Z,5.37
2018-06-03T18:52:37.165Z,6.12
2018-06-03T18:55:06.757Z,6.35
2018-06-03T18:57:36.346Z,3.05
2018-06-03T19:00:05.774Z,4.07
2018-06-03T19:02:34.631Z,3.58
2018-06-03T19:05:03.479Z,3.60
2018-06-03T19:07:32.344Z,3.15
2018-06-03T19:10:01.923Z,2.95
2018-06-03T19:12:30.841Z,5.47
2018-06-03T19:14:59.635Z,2.90
2018-06-03T19:17:29.275Z,4.03
2018-06-03T19:19:58.314Z,5.97
2018-06-03T19:22:27.154Z,5.00
2018-06-03T19:24:55.999Z,4.12
2018-06-03T19:27:24.848Z,4.90
2018-06-03T19:29:53.716Z,3.83
2018-06-03T19:32:22.556Z,3.83
2018-06-03T19:34:51.399Z,3.92
2018-06-03T19:37:20.268Z,6.30
2018-06-03T19:39:49.097Z,5.32
2018-06-03T19:42:17.964Z,6.97
2018-06-03T19:44:46.811Z,3.90
2018-06-03T19:47:15.657Z,3.28
2018-06-03T19:49:44.504Z,3.90
2018-06-03T19:52:14.103Z,3.50
2018-06-03T19:54:42.960Z,3.20
2018-06-03T19:57:11.807Z,3.40
2018-06-03T19:59:40.657Z,3.15
2018-06-03T20:02:09.490Z,3.85
2018-06-03T20:04:38.326Z,7.97
2018-06-03T20:07:07.171Z,5.57
2018-06-03T20:09:36.026Z,3.92
2018-06-03T20:12:05.639Z,6.68
2018-06-03T20:14:34.457Z,5.37
2018-06-03T20:17:03.307Z,4.03
2018-06-03T20:19:32.894Z,3.65
2018-06-03T20:22:01.736Z,6.33
2018-06-03T20:24:30.595Z,3.72
2018-06-03T20:27:00.175Z,3.67
2018-06-03T20:29:29.004Z,4.10
2018-06-03T20:31:57.876Z,3.00
2018-06-03T20:34:26.720Z,3.10
2018-06-03T20:36:55.587Z,4.28
2018-06-03T20:39:24.424Z,4.00
2018-06-03T20:41:53.288Z,3.67
2018-06-03T20:44:22.171Z,3.03
2018-06-03T20:46:51.729Z,3.20
2018-06-03T20:49:20.832Z,2.77
2018-06-03T20:51:49.682Z,2.95
2018-06-03T20:54:18.544Z,3.13
2018-06-03T20:56:47.615Z,3.05
2018-06-03T20:59:16.828Z,2.50
2018-06-03T21:01:45.666Z,2.42
2018-06-03T21:04:14.506Z,2.50
2018-06-03T21:06:43.345Z,2.55
2018-06-03T21:09:12.190Z,4.12
2018-06-03T21:11:41.039Z,4.95
2018-06-03T21:14:10.613Z,3.55
2018-06-03T21:16:39.446Z,3.03
2018-06-03T21:19:08.290Z,2.20
2018-06-03T21:21:37.119Z,5.60
2018-06-03T21:24:06.718Z,4.37
2018-06-03T21:26:36.339Z,3.90
2018-06-03T21:29:05.943Z,3.42
2018-06-03T21:31:35.520Z,2.33
2018-06-03T21:34:04.351Z,5.70
2018-06-03T21:36:33.208Z,4.82
2018-06-03T21:39:02.050Z,2.83
2018-06-03T21:41:30.913Z,2.92
2018-06-03T21:43:59.756Z,2.70
2018-06-03T21:46:28.589Z,3.83
2018-06-03T21:48:58.162Z,2.30
2018-06-03T21:51:27.002Z,2.53
2018-06-03T21:53:55.886Z,3.47
2018-06-03T21:56:24.731Z,3.47
2018-06-03T21:58:53.575Z,3.17
2018-06-03T22:01:22.425Z,4.70
2018-06-03T22:03:51.288Z,2.53
2018-06-03T22:06:20.122Z,3.42
2018-06-03T22:08:48.963Z,4.50
2018-06-03T22:11:17.799Z,2.35
2018-06-03T22:13:46.633Z,2.30
2018-06-03T22:16:15.468Z,4.28
2018-06-03T22:18:45.071Z,3.33
2018-06-03T22:21:14.658Z,3.47
2018-06-03T22:23:43.498Z,2.80
2018-06-03T22:26:12.338Z,4.80
2018-06-03T22:28:41.181Z,3.87
2018-06-03T22:31:10.038Z,2.35
2018-06-03T22:33:38.865Z,2.72
2018-06-03T22:36:07.704Z,8.15
2018-06-03T22:38:36.546Z,2.87
2018-06-03T22:41:05.397Z,2.90
2018-06-03T22:43:34.253Z,2.58
2018-06-03T22:46:03.085Z,3.70
2018-06-03T22:48:32.661Z,4.97
2018-06-03T22:51:01.494Z,3.72
2018-06-03T22:53:30.335Z,3.37
2018-06-03T22:55:59.173Z,2.95
2018-06-03T22:58:28.012Z,3.47
2018-06-03T23:00:56.853Z,5.87
2018-06-03T23:03:25.693Z,3.12
2018-06-03T23:05:54.547Z,3.00
2018-06-03T23:08:23.393Z,5.12
2018-06-03T23:10:52.974Z,4.05
2018-06-03T23:13:21.824Z,3.40
2018-06-03T23:15:50.679Z,3.47
2018-06-03T23:18:19.514Z,3.40
2018-06-03T23:20:48.354Z,4.60
2018-06-03T23:23:17.939Z,3.15
2018-06-03T23:25:46.809Z,4.55
2018-06-03T23:28:15.646Z,3.58
2018-06-03T23:30:44.509Z,3.25
2018-06-03T23:33:13.355Z,3.67
2018-06-03T23:35:42.186Z,5.03
2018-06-03T23:38:11.038Z,5.20
2018-06-03T23:40:39.873Z,4.10
2018-06-03T23:43:08.721Z,3.53
2018-06-03T23:45:37.605Z,4.40
2018-06-03T23:48:06.405Z,3.50
2018-06-03T23:50:35.235Z,3.33
2018-06-03T23:53:04.809Z,6.32
2018-06-03T23:55:33.640Z,4.03
2018-06-03T23:58:02.483Z,3.58
